Time;durP1;ratioP1;P1;durP2;ratioP2;P2;SDS_P1;SDS_P2;PMS_P1;PMS_P2;Temp;Humidity;BMP_temperature;BMP_pressure;BME280_temperature;BME280_humidity;BME280_pressure;Samples;Min_cycle;Max_cycle;Signal;HPM_P1;HPM_P2
2023/05/07 00:01:27;;;;;;;;;;;7.10;81.10;;;;;;4140460;28;20573;-88
2023/05/07 00:03:51;;;;;;;;;;;7.20;80.90;;;;;;4128368;28;20284;-86
2023/05/07 00:06:08;;;;;;;;;;;7.20;81.10;;;;;;4138768;28;19960;-86
2023/05/07 00:08:22;;;;;;;;;;;7.30;81.10;;;;;;4139578;28;19929;-87
2023/05/07 00:10:46;;;;;;;;;;;7.30;80.80;;;;;;4125728;28;20363;-86
2023/05/07 00:12:46;;;;;;;;;;;7.20;80.80;;;;;;4126618;28;19918;-86
2023/05/07 00:14:47;;;;;;;;;;;7.30;80.80;;;;;;4126634;28;20008;-86
2023/05/07 00:16:47;;;;;;;;;;;7.20;80.90;;;;;;4125751;28;19922;-87
2023/05/07 00:18:48;;;;;;;;;;;7.30;81.00;;;;;;4132399;28;19928;-87
2023/05/07 00:20:52;;;;;;;;;;;7.30;81.00;;;;;;4122897;28;20021;-86
2023/05/07 00:22:53;;;;;;;;;;;7.30;81.10;;;;;;4132693;28;20351;-88
2023/05/07 00:24:56;;;;;;;;;;;7.30;81.00;;;;;;4117483;28;19926;-88
2023/05/07 00:27:03;;;;;;;;;;;7.20;81.00;;;;;;4122163;28;19917;-88
2023/05/07 00:29:04;;;;;;;;;;;7.40;80.90;;;;;;4105701;28;19922;-87
2023/05/07 00:31:05;;;;;;;;;;;7.30;81.00;;;;;;4135033;28;19924;-86
2023/05/07 00:33:05;;;;;;;;;;;7.30;80.80;;;;;;4121216;28;19956;-85
2023/05/07 00:35:06;;;;;;;;;;;7.20;80.70;;;;;;4123073;28;19914;-85
2023/05/07 00:39:30;;;;;;;;;;;7.30;81.00;;;;;;4093473;28;19922;-85
2023/05/07 00:41:33;;;;;;;;;;;7.00;81.10;;;;;;4081652;29;19965;-87
2023/05/07 00:43:54;;;;;;;;;;;7.00;81.40;;;;;;4090661;28;19958;-87
2023/05/07 00:46:15;;;;;;;;;;;7.10;81.70;;;;;;4090973;28;19915;-84
2023/05/07 00:48:42;;;;;;;;;;;7.20;81.80;;;;;;4075821;28;19982;-86
2023/05/07 00:51:03;;;;;;;;;;;7.20;82.10;;;;;;4080530;28;20649;-85
2023/05/07 00:53:23;;;;;;;;;;;7.10;81.90;;;;;;4094118;28;20373;-86
2023/05/07 00:55:53;;;;;;;;;;;7.20;82.00;;;;;;4091702;28;19972;-86
2023/05/07 00:57:53;;;;;;;;;;;7.20;82.10;;;;;;4075983;29;20757;-88
2023/05/07 01:00:09;;;;;;;;;;;7.20;82.20;;;;;;4090386;28;20348;-85
2023/05/07 01:02:19;;;;;;;;;;;7.20;81.90;;;;;;4089225;28;19919;-86
2023/05/07 01:04:25;;;;;;;;;;;7.00;82.20;;;;;;4095675;28;19934;-86
2023/05/07 01:06:33;;;;;;;;;;;7.20;82.40;;;;;;4076020;29;20289;-86
2023/05/07 01:08:35;;;;;;;;;;;7.30;82.40;;;;;;4073783;29;20024;-86
2023/05/07 01:10:42;;;;;;;;;;;7.40;82.20;;;;;;4072525;29;19988;-87
2023/05/07 01:12:48;;;;;;;;;;;7.40;82.20;;;;;;4077482;29;19915;-87
2023/05/07 01:14:51;;;;;;;;;;;7.40;82.30;;;;;;4088235;28;19919;-87
2023/05/07 01:16:55;;;;;;;;;;;7.30;82.10;;;;;;4098858;28;19922;-86
2023/05/07 01:18:56;;;;;;;;;;;7.40;82.00;;;;;;4124166;28;20442;-87
2023/05/07 01:20:58;;;;;;;;;;;7.40;82.10;;;;;;4128184;28;19921;-86
2023/05/07 01:23:00;;;;;;;;;;;7.40;82.00;;;;;;4151728;28;19922;-87
2023/05/07 01:25:03;;;;;;;;;;;7.40;82.30;;;;;;4117772;28;19922;-86
2023/05/07 01:27:24;;;;;;;;;;;7.50;82.20;;;;;;4138653;28;20318;-87
2023/05/07 01:29:31;;;;;;;;;;;7.50;82.10;;;;;;4119447;28;19922;-88
2023/05/07 01:31:55;;;;;;;;;;;7.60;82.00;;;;;;4121662;28;20312;-87
2023/05/07 01:34:17;;;;;;;;;;;7.50;82.20;;;;;;4136490;28;19975;-85
2023/05/07 01:36:38;;;;;;;;;;;7.50;82.10;;;;;;4136959;28;19928;-86
2023/05/07 01:39:08;;;;;;;;;;;7.50;82.30;;;;;;4137186;28;19921;-87
2023/05/07 01:41:19;;;;;;;;;;;7.60;82.00;;;;;;4122993;28;20488;-87
2023/05/07 01:43:41;;;;;;;;;;;7.70;82.00;;;;;;4125810;28;20356;-87
2023/05/07 01:46:02;;;;;;;;;;;7.70;82.10;;;;;;4121531;28;21256;-86
2023/05/07 01:48:24;;;;;;;;;;;7.70;82.00;;;;;;4139609;28;20286;-86
2023/05/07 01:50:44;;;;;;;;;;;7.70;81.90;;;;;;4137420;28;19936;-86
2023/05/07 01:53:05;;;;;;;;;;;7.70;82.00;;;;;;4138445;28;20759;-85
2023/05/07 01:55:26;;;;;;;;;;;7.60;82.00;;;;;;4122296;28;21780;-86
2023/05/07 01:57:46;;;;;;;;;;;7.60;82.20;;;;;;4136001;28;20425;-86
2023/05/07 02:00:08;;;;;;;;;;;7.60;82.30;;;;;;4135347;28;20419;-87
2023/05/07 02:02:29;;;;;;;;;;;7.60;82.20;;;;;;4124070;28;20047;-87
2023/05/07 02:04:50;;;;;;;;;;;7.70;82.10;;;;;;4125719;28;20122;-87
2023/05/07 02:06:53;;;;;;;;;;;7.70;82.10;;;;;;4132191;28;19917;-86
2023/05/07 02:09:05;;;;;;;;;;;7.80;82.20;;;;;;4133112;28;20355;-86
2023/05/07 02:11:05;;;;;;;;;;;7.70;82.10;;;;;;4130902;28;20218;-88
2023/05/07 02:13:06;;;;;;;;;;;7.70;81.70;;;;;;4120438;28;20241;-87
2023/05/07 02:15:16;;;;;;;;;;;7.80;81.90;;;;;;4137050;28;19964;-86
2023/05/07 02:17:17;;;;;;;;;;;7.70;81.70;;;;;;4108964;28;20392;-86
2023/05/07 02:19:26;;;;;;;;;;;7.90;81.90;;;;;;4134655;28;19979;-87
2023/05/07 02:21:27;;;;;;;;;;;7.80;81.70;;;;;;4114043;28;19914;-86
2023/05/07 02:23:36;;;;;;;;;;;7.90;81.70;;;;;;4133372;28;19921;-88
2023/05/07 02:25:40;;;;;;;;;;;7.90;81.60;;;;;;4118700;28;20418;-87
2023/05/07 02:28:01;;;;;;;;;;;7.90;81.60;;;;;;4121509;28;20468;-88
2023/05/07 02:30:21;;;;;;;;;;;7.90;81.50;;;;;;4134607;28;20472;-87
2023/05/07 02:32:22;;;;;;;;;;;8.00;82.30;;;;;;4119760;28;20351;-86
2023/05/07 02:34:43;;;;;;;;;;;7.90;81.50;;;;;;4134128;28;19928;-88
2023/05/07 02:37:01;;;;;;;;;;;7.90;81.80;;;;;;4104689;28;20073;-91
2023/05/07 02:39:22;;;;;;;;;;;8.00;81.60;;;;;;4132826;28;19944;-87
2023/05/07 02:41:53;;;;;;;;;;;7.90;81.40;;;;;;4138499;28;20156;-89
2023/05/07 02:44:13;;;;;;;;;;;7.90;81.60;;;;;;4135400;28;19929;-86
2023/05/07 02:46:34;;;;;;;;;;;8.00;81.60;;;;;;4125181;28;20111;-87
2023/05/07 02:48:55;;;;;;;;;;;8.00;81.60;;;;;;4129455;28;20327;-87
2023/05/07 02:51:30;;;;;;;;;;;8.00;81.60;;;;;;4121334;28;19922;-87
2023/05/07 02:53:51;;;;;;;;;;;8.10;81.70;;;;;;4127041;28;19944;-87
2023/05/07 02:56:14;;;;;;;;;;;7.90;81.30;;;;;;4137509;28;19964;-87
2023/05/07 02:58:35;;;;;;;;;;;8.00;81.40;;;;;;4122801;28;19917;-88
2023/05/07 03:00:36;;;;;;;;;;;7.90;81.20;;;;;;4124746;28;19993;-87
2023/05/07 03:03:03;;;;;;;;;;;8.00;81.40;;;;;;4137468;28;20365;-88
2023/05/07 03:05:24;;;;;;;;;;;7.90;81.20;;;;;;4124312;28;19918;-87
2023/05/07 03:08:04;;;;;;;;;;;8.00;81.10;;;;;;4136428;28;19921;-87
2023/05/07 03:10:42;;;;;;;;;;;8.10;80.90;;;;;;4137941;28;20252;-87
2023/05/07 03:13:03;;;;;;;;;;;8.00;80.80;;;;;;4124565;28;19987;-88
2023/05/07 03:15:23;;;;;;;;;;;8.10;80.70;;;;;;4139793;28;19939;-89
2023/05/07 03:17:49;;;;;;;;;;;8.10;80.70;;;;;;4143060;28;19913;-88
2023/05/07 03:20:20;;;;;;;;;;;7.90;80.70;;;;;;4140236;28;20015;-87
2023/05/07 03:23:02;;;;;;;;;;;8.00;80.80;;;;;;4141306;28;19917;-86
2023/05/07 03:25:25;;;;;;;;;;;7.80;80.50;;;;;;4137526;28;20665;-86
2023/05/07 03:27:46;;;;;;;;;;;8.00;80.50;;;;;;4136449;28;20758;-87
2023/05/07 03:29:47;;;;;;;;;;;8.00;80.50;;;;;;4138720;28;20398;-87
2023/05/07 03:31:51;;;;;;;;;;;8.10;80.60;;;;;;4125502;28;19918;-87
2023/05/07 03:33:52;;;;;;;;;;;8.10;80.40;;;;;;4120555;28;20345;-86
2023/05/07 03:35:53;;;;;;;;;;;8.00;80.30;;;;;;4125389;28;19976;-89
2023/05/07 03:37:57;;;;;;;;;;;8.00;80.60;;;;;;4123126;28;19921;-89
2023/05/07 03:39:57;;;;;;;;;;;8.00;80.50;;;;;;4123907;28;20414;-86
2023/05/07 03:42:01;;;;;;;;;;;8.00;80.30;;;;;;4129399;28;20647;-87
2023/05/07 03:44:01;;;;;;;;;;;8.00;80.30;;;;;;4121293;28;19960;-86
2023/05/07 03:46:02;;;;;;;;;;;8.00;80.10;;;;;;4124630;28;20407;-87
2023/05/07 03:48:08;;;;;;;;;;;8.00;80.10;;;;;;4122146;28;20339;-87
2023/05/07 03:50:14;;;;;;;;;;;8.00;80.10;;;;;;4110678;28;19918;-86
2023/05/07 03:52:15;;;;;;;;;;;7.90;80.10;;;;;;4125650;28;20311;-86
2023/05/07 03:54:49;;;;;;;;;;;8.10;80.20;;;;;;4138892;28;19938;-87
2023/05/07 03:56:50;;;;;;;;;;;8.00;80.00;;;;;;4121158;28;19949;-87
2023/05/07 03:59:11;;;;;;;;;;;8.10;80.00;;;;;;4124413;28;19922;-86
2023/05/07 04:01:31;;;;;;;;;;;8.10;80.00;;;;;;4129399;28;19969;-87
2023/05/07 04:03:52;;;;;;;;;;;8.00;79.90;;;;;;4143663;28;19929;-88
2023/05/07 04:06:22;;;;;;;;;;;8.10;79.80;;;;;;4132975;28;19960;-90
2023/05/07 04:08:42;;;;;;;;;;;8.10;79.80;;;;;;4142737;28;19913;-86
2023/05/07 04:11:06;;;;;;;;;;;8.10;79.70;;;;;;4140491;28;19921;-87
2023/05/07 04:13:37;;;;;;;;;;;8.20;79.60;;;;;;4128179;28;19973;-87
2023/05/07 04:16:02;;;;;;;;;;;8.10;79.60;;;;;;4143357;28;19976;-86
2023/05/07 04:18:14;;;;;;;;;;;8.20;79.60;;;;;;4127839;28;19961;-86
2023/05/07 04:20:16;;;;;;;;;;;8.20;79.50;;;;;;4125811;28;19922;-87
2023/05/07 04:22:20;;;;;;;;;;;8.00;79.70;;;;;;4110517;28;19922;-86
2023/05/07 04:24:23;;;;;;;;;;;8.10;79.60;;;;;;4119549;28;19921;-86
2023/05/07 04:26:47;;;;;;;;;;;8.10;79.80;;;;;;4129095;28;20114;-86
2023/05/07 04:28:58;;;;;;;;;;;8.10;79.50;;;;;;4124859;28;19918;-87
2023/05/07 04:31:28;;;;;;;;;;;8.20;79.30;;;;;;4123664;28;19913;-87
2023/05/07 04:34:04;;;;;;;;;;;8.10;79.30;;;;;;4129004;28;19925;-90
2023/05/07 04:36:30;;;;;;;;;;;8.10;79.20;;;;;;4133761;28;19917;-87
2023/05/07 04:38:58;;;;;;;;;;;8.10;79.00;;;;;;4126233;28;19922;-89
2023/05/07 04:41:24;;;;;;;;;;;8.20;79.20;;;;;;4132925;28;19917;-87
2023/05/07 04:43:54;;;;;;;;;;;8.30;79.10;;;;;;4149356;28;19985;-89
2023/05/07 04:46:24;;;;;;;;;;;8.20;79.10;;;;;;4134423;28;19941;-89
2023/05/07 04:48:54;;;;;;;;;;;8.20;79.10;;;;;;4124465;28;19918;-87
2023/05/07 04:51:15;;;;;;;;;;;8.20;78.90;;;;;;4141043;28;19921;-88
2023/05/07 04:53:37;;;;;;;;;;;8.30;78.90;;;;;;4122697;28;19945;-87
2023/05/07 04:55:57;;;;;;;;;;;8.30;78.90;;;;;;4123891;28;20055;-88
2023/05/07 04:58:18;;;;;;;;;;;8.30;79.00;;;;;;4140696;28;20039;-87
2023/05/07 05:00:42;;;;;;;;;;;8.40;79.00;;;;;;4139498;28;19939;-87
2023/05/07 05:03:03;;;;;;;;;;;8.30;78.90;;;;;;4123920;28;19946;-87
2023/05/07 05:05:23;;;;;;;;;;;8.30;78.90;;;;;;4139043;28;19946;-87
2023/05/07 05:07:44;;;;;;;;;;;8.40;79.00;;;;;;4139652;28;20020;-86
2023/05/07 05:10:16;;;;;;;;;;;8.40;78.90;;;;;;4121486;28;19917;-87
2023/05/07 05:12:36;;;;;;;;;;;8.30;78.80;;;;;;4119410;28;19961;-91
2023/05/07 05:15:00;;;;;;;;;;;8.40;78.80;;;;;;4141087;28;19921;-86
2023/05/07 05:17:21;;;;;;;;;;;8.40;78.80;;;;;;4124421;28;19993;-87
2023/05/07 05:19:41;;;;;;;;;;;8.50;78.90;;;;;;4138759;28;19921;-86
2023/05/07 05:22:11;;;;;;;;;;;8.50;78.80;;;;;;4127316;28;20013;-88
2023/05/07 05:24:32;;;;;;;;;;;8.40;78.60;;;;;;4139895;28;19917;-86
2023/05/07 05:26:55;;;;;;;;;;;8.60;78.70;;;;;;4126438;28;20392;-86
2023/05/07 05:29:16;;;;;;;;;;;8.50;78.60;;;;;;4135556;28;19943;-86
2023/05/07 05:31:42;;;;;;;;;;;8.70;78.50;;;;;;4137845;28;19918;-88
2023/05/07 05:34:05;;;;;;;;;;;8.50;78.10;;;;;;4137036;28;19913;-87
2023/05/07 05:36:31;;;;;;;;;;;8.70;78.20;;;;;;4129245;28;20028;-86
2023/05/07 05:38:32;;;;;;;;;;;8.60;77.80;;;;;;4108115;28;19914;-86
2023/05/07 05:40:33;;;;;;;;;;;8.70;77.90;;;;;;4116251;28;19938;-85
2023/05/07 05:42:57;;;;;;;;;;;8.70;77.80;;;;;;4105640;28;19992;-87
2023/05/07 05:44:58;;;;;;;;;;;8.70;77.60;;;;;;4141522;28;20012;-86
2023/05/07 05:47:06;;;;;;;;;;;8.70;77.50;;;;;;4108746;28;20434;-87
2023/05/07 05:49:16;;;;;;;;;;;8.80;77.60;;;;;;4107107;28;19918;-88
2023/05/07 05:51:23;;;;;;;;;;;8.80;77.50;;;;;;4123728;28;19929;-87
2023/05/07 05:53:26;;;;;;;;;;;8.80;77.50;;;;;;4121765;28;21924;-86
2023/05/07 05:55:27;;;;;;;;;;;8.90;77.50;;;;;;4140426;28;20011;-86
2023/05/07 05:57:28;;;;;;;;;;;8.90;77.50;;;;;;4113620;28;20405;-88
2023/05/07 05:59:29;;;;;;;;;;;8.90;77.50;;;;;;4156366;28;19910;-89
2023/05/07 06:01:35;;;;;;;;;;;8.90;77.40;;;;;;4143652;28;19967;-89
2023/05/07 06:04:04;;;;;;;;;;;8.90;77.30;;;;;;4160486;28;19917;-88
2023/05/07 06:06:33;;;;;;;;;;;8.90;77.20;;;;;;4133477;28;20024;-88
2023/05/07 06:08:37;;;;;;;;;;;8.90;77.20;;;;;;4137184;28;19944;-89
2023/05/07 06:10:43;;;;;;;;;;;8.80;76.70;;;;;;4122450;28;19918;-86
2023/05/07 06:13:05;;;;;;;;;;;8.80;76.20;;;;;;4108967;28;19918;-88
2023/05/07 06:15:09;;;;;;;;;;;9.00;76.70;;;;;;4111853;28;19922;-88
2023/05/07 06:17:32;;;;;;;;;;;8.90;76.50;;;;;;4125045;28;20320;-87
2023/05/07 06:19:38;;;;;;;;;;;8.90;76.60;;;;;;4121165;28;20541;-87
2023/05/07 06:21:46;;;;;;;;;;;8.90;76.50;;;;;;4124657;28;19969;-86
2023/05/07 06:23:50;;;;;;;;;;;8.90;76.20;;;;;;4118368;28;19973;-87
2023/05/07 06:26:18;;;;;;;;;;;8.90;76.40;;;;;;4123724;28;19918;-88
2023/05/07 06:28:25;;;;;;;;;;;8.90;76.30;;;;;;4123742;28;19977;-86
2023/05/07 06:32:52;;;;;;;;;;;9.00;76.20;;;;;;4127158;28;19917;-87
2023/05/07 06:35:11;;;;;;;;;;;8.90;76.20;;;;;;4127218;28;19952;-87
2023/05/07 06:37:14;;;;;;;;;;;9.00;76.10;;;;;;4107137;28;19918;-87
2023/05/07 06:39:17;;;;;;;;;;;8.80;75.50;;;;;;4126112;28;20008;-88
2023/05/07 06:41:20;;;;;;;;;;;9.00;75.90;;;;;;4123528;28;19918;-89
2023/05/07 06:43:46;;;;;;;;;;;9.00;75.80;;;;;;4149028;28;19929;-86
2023/05/07 06:46:07;;;;;;;;;;;9.00;75.20;;;;;;4129148;28;20132;-86
2023/05/07 06:48:28;;;;;;;;;;;8.80;75.10;;;;;;4141559;28;19922;-86
2023/05/07 06:50:51;;;;;;;;;;;8.90;75.10;;;;;;4143119;28;19933;-86
2023/05/07 06:53:14;;;;;;;;;;;9.00;75.40;;;;;;4127275;28;19981;-88
2023/05/07 06:55:41;;;;;;;;;;;9.00;75.50;;;;;;4142783;28;19922;-86
2023/05/07 06:58:05;;;;;;;;;;;9.00;75.40;;;;;;4139686;28;19921;-88
2023/05/07 07:00:44;;;;;;;;;;;9.00;75.10;;;;;;4141677;28;19917;-86
2023/05/07 07:03:11;;;;;;;;;;;9.00;74.90;;;;;;4131261;28;19925;-88
2023/05/07 07:05:50;;;;;;;;;;;9.00;74.90;;;;;;4147098;28;19930;-86
2023/05/07 07:08:22;;;;;;;;;;;;;;;;;;;;;
2023/05/07 07:10:55;;;;;;;;;;;8.90;74.60;;;;;;4148892;28;19925;-86
2023/05/07 07:13:19;;;;;;;;;;;8.90;74.80;;;;;;4141451;28;19918;-85
2023/05/07 07:15:48;;;;;;;;;;;8.90;75.20;;;;;;4114150;28;19965;-86
2023/05/07 07:18:11;;;;;;;;;;;8.80;75.70;;;;;;4115939;28;20596;-86
2023/05/07 07:20:14;;;;;;;;;;;8.90;75.80;;;;;;4112020;28;19942;-86
2023/05/07 07:22:36;;;;;;;;;;;9.00;75.90;;;;;;4130869;28;19918;-85
2023/05/07 07:24:50;;;;;;;;;;;9.00;76.10;;;;;;4140860;28;19926;-88
2023/05/07 07:26:59;;;;;;;;;;;9.10;76.40;;;;;;4142869;28;20018;-85
2023/05/07 07:29:10;;;;;;;;;;;9.30;76.50;;;;;;4131773;28;19949;-87
2023/05/07 07:31:11;;;;;;;;;;;9.20;76.30;;;;;;4148527;28;19932;-84
2023/05/07 07:33:11;;;;;;;;;;;9.40;76.30;;;;;;4134023;28;20498;-86
2023/05/07 07:35:22;;;;;;;;;;;9.30;74.60;;;;;;4153672;28;19920;-87
2023/05/07 07:37:25;;;;;;;;;;;9.30;74.80;;;;;;4132184;28;19913;-87
2023/05/07 07:39:37;;;;;;;;;;;9.40;74.40;;;;;;4131576;28;19941;-87
2023/05/07 07:41:39;;;;;;;;;;;9.40;73.70;;;;;;4151465;28;19976;-86
2023/05/07 07:43:43;;;;;;;;;;;9.40;73.70;;;;;;4149047;28;19956;-86
2023/05/07 07:45:53;;;;;;;;;;;9.30;73.60;;;;;;4127005;28;20343;-86
2023/05/07 07:48:16;;;;;;;;;;;9.20;73.50;;;;;;4147989;28;19941;-88
2023/05/07 07:50:38;;;;;;;;;;;9.30;74.30;;;;;;4135433;28;19925;-86
2023/05/07 07:52:58;;;;;;;;;;;9.20;74.20;;;;;;4135146;28;19941;-86
2023/05/07 07:55:01;;;;;;;;;;;9.20;74.50;;;;;;4142043;28;19921;-86
2023/05/07 07:57:22;;;;;;;;;;;9.30;74.60;;;;;;4144233;28;19924;-86
2023/05/07 07:59:43;;;;;;;;;;;9.40;74.70;;;;;;4136455;28;19921;-85
2023/05/07 08:02:03;;;;;;;;;;;9.40;74.30;;;;;;4135069;28;19997;-89
2023/05/07 08:04:27;;;;;;;;;;;9.50;74.40;;;;;;4134949;28;19965;-86
2023/05/07 08:06:50;;;;;;;;;;;9.40;74.20;;;;;;4135271;28;19917;-86
2023/05/07 08:09:11;;;;;;;;;;;9.40;73.70;;;;;;4132449;28;19983;-86
2023/05/07 08:11:32;;;;;;;;;;;9.50;74.00;;;;;;4145089;28;19913;-86
2023/05/07 08:13:58;;;;;;;;;;;9.50;74.20;;;;;;4147883;28;19952;-85
2023/05/07 08:16:31;;;;;;;;;;;;;;;;;;;;;
2023/05/07 08:18:56;;;;;;;;;;;9.50;73.20;;;;;;4177733;23;19929;-87
2023/05/07 08:21:11;;;;;;;;;;;9.50;73.40;;;;;;4164515;28;19974;-86
2023/05/07 08:23:16;;;;;;;;;;;9.70;73.60;;;;;;4154864;28;19917;-85
2023/05/07 08:25:25;;;;;;;;;;;9.60;73.40;;;;;;4161522;28;19939;-85
2023/05/07 08:27:32;;;;;;;;;;;9.70;73.50;;;;;;4162935;28;19921;-86
2023/05/07 08:29:41;;;;;;;;;;;9.80;73.60;;;;;;4178146;28;19924;-86
2023/05/07 08:31:50;;;;;;;;;;;9.90;73.40;;;;;;4176705;28;19913;-86
2023/05/07 08:33:51;;;;;;;;;;;9.80;73.30;;;;;;4179184;28;19916;-89
2023/05/07 08:35:54;;;;;;;;;;;9.90;73.60;;;;;;4183024;28;20264;-84
2023/05/07 08:38:03;;;;;;;;;;;10.10;73.60;;;;;;4161937;28;19952;-89
2023/05/07 08:40:07;;;;;;;;;;;10.10;73.50;;;;;;4175081;28;20837;-87
2023/05/07 08:42:09;;;;;;;;;;;10.10;73.50;;;;;;4180018;28;19928;-87
2023/05/07 08:44:12;;;;;;;;;;;10.20;72.60;;;;;;4163858;28;20032;-86
2023/05/07 08:46:42;;;;;;;;;;;10.30;72.00;;;;;;4179752;28;19920;-87
2023/05/07 08:48:49;;;;;;;;;;;10.20;71.00;;;;;;4179495;28;19927;-85
2023/05/07 08:50:53;;;;;;;;;;;10.40;71.80;;;;;;4161278;28;20303;-88
2023/05/07 08:52:56;;;;;;;;;;;10.40;72.00;;;;;;4163643;28;19924;-86
2023/05/07 08:55:09;;;;;;;;;;;10.40;70.90;;;;;;4163672;28;19913;-86
2023/05/07 08:57:26;;;;;;;;;;;10.50;70.90;;;;;;4180551;28;19917;-88
2023/05/07 08:59:30;;;;;;;;;;;10.40;70.30;;;;;;4182216;28;19916;-87
2023/05/07 09:01:30;;;;;;;;;;;10.50;70.70;;;;;;4156028;28;19913;-86
2023/05/07 09:03:31;;;;;;;;;;;10.50;70.10;;;;;;4174211;28;19970;-86
2023/05/07 09:05:43;;;;;;;;;;;10.60;70.60;;;;;;4175091;28;19951;-87
2023/05/07 09:07:59;;;;;;;;;;;10.50;70.00;;;;;;4176028;28;19916;-85
2023/05/07 09:10:04;;;;;;;;;;;10.60;69.90;;;;;;4156022;28;19940;-88
2023/05/07 09:12:10;;;;;;;;;;;10.40;69.80;;;;;;4156164;28;19923;-86
2023/05/07 09:14:24;;;;;;;;;;;10.50;70.80;;;;;;4158170;28;19932;-85
2023/05/07 09:16:28;;;;;;;;;;;10.60;70.90;;;;;;4162508;28;19916;-84
2023/05/07 09:18:34;;;;;;;;;;;10.70;71.10;;;;;;4175078;28;19982;-86
2023/05/07 09:20:36;;;;;;;;;;;10.70;71.00;;;;;;4161464;28;19921;-85
2023/05/07 09:22:49;;;;;;;;;;;10.60;70.20;;;;;;4160752;28;19932;-84
2023/05/07 09:24:52;;;;;;;;;;;10.40;69.90;;;;;;4175815;28;19931;-85
2023/05/07 09:27:02;;;;;;;;;;;10.30;70.10;;;;;;4162448;28;19953;-85
2023/05/07 09:29:06;;;;;;;;;;;10.50;70.50;;;;;;4173859;28;19924;-86
2023/05/07 09:31:06;;;;;;;;;;;10.60;70.90;;;;;;4178636;28;19924;-86
2023/05/07 09:33:25;;;;;;;;;;;10.70;71.40;;;;;;4164810;28;20493;-86
2023/05/07 09:35:29;;;;;;;;;;;10.70;71.70;;;;;;4160829;28;19982;-85
2023/05/07 09:37:46;;;;;;;;;;;;;;;;;;;;;
2023/05/07 09:39:48;;;;;;;;;;;10.90;71.10;;;;;;4180373;28;19913;-89
2023/05/07 09:42:00;;;;;;;;;;;11.00;71.60;;;;;;4168957;28;19913;-86
2023/05/07 09:44:03;;;;;;;;;;;11.10;71.50;;;;;;4170289;28;20464;-84
2023/05/07 09:46:08;;;;;;;;;;;11.20;70.00;;;;;;4159752;28;19924;-85
2023/05/07 09:48:09;;;;;;;;;;;11.10;69.40;;;;;;4177693;28;20488;-84
2023/05/07 09:50:30;;;;;;;;;;;11.10;69.90;;;;;;4173211;28;20322;-87
2023/05/07 09:52:35;;;;;;;;;;;11.30;70.70;;;;;;4159659;28;19919;-83
2023/05/07 09:54:37;;;;;;;;;;;11.20;71.00;;;;;;4159003;28;19996;-85
2023/05/07 09:56:44;;;;;;;;;;;11.30;69.10;;;;;;4162379;28;19924;-85
2023/05/07 09:58:57;;;;;;;;;;;11.40;68.90;;;;;;4173367;28;19917;-85
2023/05/07 10:01:06;;;;;;;;;;;11.50;68.40;;;;;;4157148;28;20390;-85
2023/05/07 10:03:22;;;;;;;;;;;11.50;68.20;;;;;;4171089;28;19952;-85
2023/05/07 10:05:26;;;;;;;;;;;11.50;68.30;;;;;;4146044;28;20039;-85
2023/05/07 10:07:29;;;;;;;;;;;11.50;67.50;;;;;;4153358;28;19928;-87
2023/05/07 10:09:35;;;;;;;;;;;11.60;68.00;;;;;;4173466;28;19988;-85
2023/05/07 10:11:36;;;;;;;;;;;11.80;68.60;;;;;;4172628;28;19914;-85
2023/05/07 10:13:42;;;;;;;;;;;11.80;68.20;;;;;;4172463;28;19927;-86
2023/05/07 10:15:47;;;;;;;;;;;11.80;67.50;;;;;;4157992;28;19920;-87
2023/05/07 10:17:53;;;;;;;;;;;11.90;67.40;;;;;;4173627;28;20011;-87
2023/05/07 10:19:58;;;;;;;;;;;11.90;67.60;;;;;;4158845;28;19917;-87
2023/05/07 10:22:07;;;;;;;;;;;12.00;67.10;;;;;;4157005;28;19959;-89
2023/05/07 10:24:27;;;;;;;;;;;12.00;67.10;;;;;;4176106;28;19917;-89
2023/05/07 10:26:37;;;;;;;;;;;12.20;67.40;;;;;;4174624;28;19923;-86
2023/05/07 10:28:42;;;;;;;;;;;12.20;68.20;;;;;;4173986;28;19948;-89
2023/05/07 10:30:55;;;;;;;;;;;12.30;67.30;;;;;;4160451;28;19917;-87
2023/05/07 10:33:05;;;;;;;;;;;12.20;67.30;;;;;;4175694;28;19923;-86
2023/05/07 10:35:20;;;;;;;;;;;12.30;67.20;;;;;;4152916;28;19921;-86
2023/05/07 10:37:24;;;;;;;;;;;12.30;66.80;;;;;;4176159;28;19917;-86
2023/05/07 10:39:35;;;;;;;;;;;12.30;66.80;;;;;;4173094;28;19967;-86
2023/05/07 10:41:38;;;;;;;;;;;12.30;66.60;;;;;;4158041;28;19914;-87
2023/05/07 10:43:43;;;;;;;;;;;12.40;66.40;;;;;;4169297;28;19921;-86
2023/05/07 10:45:44;;;;;;;;;;;12.30;66.20;;;;;;4178141;28;19920;-88
2023/05/07 10:48:07;;;;;;;;;;;12.40;66.70;;;;;;4159899;28;19993;-89
2023/05/07 10:50:10;;;;;;;;;;;12.40;65.90;;;;;;4174339;28;20317;-85
2023/05/07 10:52:23;;;;;;;;;;;12.30;64.40;;;;;;4174378;28;19924;-88
2023/05/07 10:54:27;;;;;;;;;;;12.40;65.40;;;;;;4157867;28;20004;-85
2023/05/07 10:56:38;;;;;;;;;;;12.40;66.10;;;;;;4175735;28;19917;-86
2023/05/07 10:58:43;;;;;;;;;;;12.50;66.70;;;;;;4156918;28;20566;-86
2023/05/07 11:00:46;;;;;;;;;;;12.60;67.10;;;;;;4156831;28;19924;-87
2023/05/07 11:03:04;;;;;;;;;;;12.60;67.70;;;;;;4160021;28;20457;-87
2023/05/07 11:05:23;;;;;;;;;;;12.70;66.30;;;;;;4174826;28;19967;-85
2023/05/07 11:07:30;;;;;;;;;;;12.80;67.00;;;;;;4172517;28;19928;-86
2023/05/07 11:09:52;;;;;;;;;;;12.80;65.90;;;;;;4150332;28;19921;-89
2023/05/07 11:12:03;;;;;;;;;;;12.90;65.60;;;;;;4170885;28;19920;-87
2023/05/07 11:14:12;;;;;;;;;;;12.90;65.90;;;;;;4176448;28;20413;-86
2023/05/07 11:16:40;;;;;;;;;;;12.80;64.00;;;;;;4158559;28;20489;-86
2023/05/07 11:18:47;;;;;;;;;;;12.80;64.10;;;;;;4157992;28;19945;-84
2023/05/07 11:20:49;;;;;;;;;;;12.80;64.60;;;;;;4181790;28;20387;-87
2023/05/07 11:23:05;;;;;;;;;;;12.80;65.30;;;;;;4161687;28;20564;-85
2023/05/07 11:25:27;;;;;;;;;;;12.90;65.80;;;;;;4157624;28;19999;-86
2023/05/07 11:27:31;;;;;;;;;;;12.90;66.50;;;;;;4181749;28;21200;-86
2023/05/07 11:29:37;;;;;;;;;;;12.90;65.70;;;;;;4178657;28;20386;-86
2023/05/07 11:31:38;;;;;;;;;;;13.00;66.10;;;;;;4172243;28;20388;-86
2023/05/07 11:33:38;;;;;;;;;;;13.10;66.30;;;;;;4160564;28;19956;-86
2023/05/07 11:35:45;;;;;;;;;;;13.10;66.20;;;;;;4178807;28;19932;-89
2023/05/07 11:37:49;;;;;;;;;;;13.20;66.70;;;;;;4175545;28;19917;-88
2023/05/07 11:40:10;;;;;;;;;;;13.30;67.00;;;;;;4148138;28;19921;-86
2023/05/07 11:42:42;;;;;;;;;;;13.30;67.20;;;;;;4171542;28;19917;-86
2023/05/07 11:44:51;;;;;;;;;;;13.40;66.80;;;;;;4162435;28;19971;-88
2023/05/07 11:46:52;;;;;;;;;;;13.50;66.80;;;;;;4162154;28;21270;-87
2023/05/07 12:01:31;;;;;;;;;;;13.90;64.60;;;;;;2300887;26;19978;-86
2023/05/07 12:03:36;;;;;;;;;;;14.10;64.80;;;;;;4139422;28;19926;-85
2023/05/07 12:06:04;;;;;;;;;;;14.00;64.40;;;;;;4142090;28;20683;-86
2023/05/07 12:08:23;;;;;;;;;;;14.20;63.90;;;;;;4160638;28;19927;-86
2023/05/07 12:10:55;;;;;;;;;;;14.10;62.50;;;;;;4149717;28;20482;-90
2023/05/07 12:12:58;;;;;;;;;;;14.00;61.20;;;;;;4142177;28;19948;-86
2023/05/07 12:15:02;;;;;;;;;;;14.10;61.70;;;;;;4157605;28;20042;-86
2023/05/07 12:17:07;;;;;;;;;;;14.10;62.00;;;;;;4148179;28;19920;-87
2023/05/07 12:19:12;;;;;;;;;;;14.10;60.20;;;;;;4141254;28;19917;-87
2023/05/07 12:21:13;;;;;;;;;;;14.10;61.40;;;;;;4162395;28;21041;-85
2023/05/07 12:23:16;;;;;;;;;;;14.10;61.20;;;;;;4158286;28;19917;-84
2023/05/07 12:25:19;;;;;;;;;;;14.10;60.50;;;;;;4141116;28;19921;-85
2023/05/07 12:27:22;;;;;;;;;;;14.00;60.30;;;;;;4127606;28;19984;-86
2023/05/07 12:29:24;;;;;;;;;;;13.90;59.60;;;;;;4142394;28;20607;-85
2023/05/07 12:31:40;;;;;;;;;;;14.00;60.50;;;;;;4124583;28;19922;-86
2023/05/07 12:34:29;;;;;;;;;;;14.00;59.80;;;;;;4122204;28;19917;-87
2023/05/07 12:36:55;;;;;;;;;;;13.80;60.50;;;;;;4148132;28;19917;-86
2023/05/07 12:38:57;;;;;;;;;;;13.80;60.50;;;;;;4142300;28;19953;-89
2023/05/07 12:40:57;;;;;;;;;;;13.80;59.70;;;;;;4143091;28;20422;-86
2023/05/07 12:42:59;;;;;;;;;;;13.70;59.90;;;;;;4138282;28;19918;-84
2023/05/07 12:45:07;;;;;;;;;;;13.80;59.70;;;;;;4137466;28;19987;-85
2023/05/07 12:47:12;;;;;;;;;;;13.70;59.00;;;;;;4145726;28;20015;-85
2023/05/07 12:49:18;;;;;;;;;;;13.50;59.40;;;;;;4126954;28;19995;-86
2023/05/07 12:51:31;;;;;;;;;;;13.50;60.20;;;;;;4146289;28;19951;-86
2023/05/07 12:53:40;;;;;;;;;;;13.40;60.70;;;;;;4138447;28;20075;-87
2023/05/07 12:56:08;;;;;;;;;;;13.40;59.90;;;;;;4158318;28;19941;-86
2023/05/07 12:58:29;;;;;;;;;;;13.40;60.30;;;;;;4123055;28;19948;-86
2023/05/07 13:03:44;;;;;;;;;;;13.50;59.90;;;;;;4128675;28;19932;-84
2023/05/07 13:05:57;;;;;;;;;;;13.60;60.50;;;;;;4051677;29;19946;-88
2023/05/07 13:08:09;;;;;;;;;;;13.50;59.30;;;;;;4087613;23;19934;-87
2023/05/07 13:10:19;;;;;;;;;;;13.60;60.30;;;;;;4110344;28;19918;-87
2023/05/07 13:12:24;;;;;;;;;;;13.60;59.40;;;;;;4127974;28;19944;-85
2023/05/07 13:14:25;;;;;;;;;;;13.50;58.60;;;;;;4130165;28;19925;-87
2023/05/07 13:16:54;;;;;;;;;;;;;;;;;;;;;
2023/05/07 13:18:58;;;;;;;;;;;13.70;59.40;;;;;;4112066;28;19999;-87
2023/05/07 13:21:04;;;;;;;;;;;13.70;58.90;;;;;;4112350;28;19941;-88
2023/05/07 13:23:08;;;;;;;;;;;13.70;58.50;;;;;;4094266;28;19919;-87
2023/05/07 13:25:26;;;;;;;;;;;13.80;58.90;;;;;;4113608;28;19926;-86